Warning: Javascript must be enabled to use all the features on this page!


Page Loading - Please Wait...

Click to hideNews Bulletins

Peak Streamflow for the Nation

USGS 02473460 TALLAHALA CREEK AT WALDRUP, MS

Jasper County, Mississippi
Hydrologic Unit Code 03170005
Latitude  31°57'58", Longitude  89°06'54" NAD83
Drainage area 102  square miles
Contributing drainage area 102  square miles
Gage datum 290.00 feet above NGVD29
Output formats
Table
Graph
Tab-separated file
peakfq (watstore) format
Reselect output format
Water
Year
Date Gage
Height
(feet)
Stream-
flow
(cfs)
1961 1961-02-22 21.61 11,2007
1969 1969-04-14 21.77 11,800
1970 1970-03-24 17.43 1,700
1971 1971-02-21 20.53 7,600
1972 1972-01-10 17.66 2,000
1973 1973-03-31 20.34 7,150
1974 1974-04-13 23.18 17,900
1975 1975-02-16 18.92 3,950
1976 1976-03-31 20.60 7,900
1977 1977-04-22 20.33 7,120
1978 1978-01-26 17.94 2,420
1979 1979-04-04 21.87 12,300
1980 1980-04-12 20.06 6,450
1981 1981-03-31 18.75 3,630
1982 1982-02-17 18.59 3,350
1983 1983-03-06 20.36 7,220
1984 1984-03-06 18.48 3,170
1985 1984-10-22 18.49 3,180
1986 1985-10-29 18.42 2,970
1987 1987-01-18 20.98 8,610
1988 1988-09-05 19.21 4,260
1989 1989-01-01 19.80 5,340
1990 1990-02-16 22.79 17,700
1991 1991-04-30 19.92 7,080
1992 1992-03-19 17.69 2,650
1993 1993-01-12 20.29 7,400
1994 1994-01-28 20.95 10,200
1995 1995-04-24 19.53 5,240
1996 1996-02-03 18.63 3,330
1997 1997-04-28 20.47 8,180
1998 1998-01-07 20.91 9,970
1999 1999-01-31 20.37 6,610
2000 2000-04-04 18.39 2,930
2001 2001-09-02 21.23 11,500
2002 2002-09-27 18.96 3,940
2003 2003-02-22 19.98 6,510
2004 2004-02-06 23.17 18,900
2005 2005-08-30 19.97 5,810
2006 2006-03-21 19.80 5,390
2007 2007-01-01 17.93 2,200
2008 2008-02-23 20.26 5,360
2009 2009-03-28 19.49 3,730
2010 2010-02-05 18.87 4,510
2011 2011-03-09 22.69 12,700
2012 2012-03-23 20.83 6,450
2013 2013-02-13 20.38 6,940
2014 2014-04-07 21.88 12,400
2015 2015-01-04 21.83 12,200
2016 2016-03-11 21.98 12,800
2017 2017-04-04 20.60 5,600
2018 2018-03-07 18.94 2,820
2019 2018-12-28 20.73 5,890
2020 2020-01-15 20.19 4,770
2021 2021-03-26 20.52 5,430
?
  Peak Streamflow Qualification Codes.